SBNT

Augusto Severo Airport

Natal, Brazil
TAF SBNT 181500Z 1818/1918 15015KT 8000 BKN020 TN22/1908Z TX29/1915Z TEMPO 1818/1820 6000 SHRA BKN017 BECMG 1900/1902 18007KT TEMPO 1908/1912 5000 RA BKN015 BECMG 1911/1913 14016KT RMK PCH
Issued Valid From Valid To
Jul-18 @ 15:00 UTC
(7 hours ago)
Jul-18 @ 18:00 UTC
(4 hours ago)
Jul-19 @ 18:00 UTC
(in 20 hours)
Jul-18 @ 18:00 to Jul-19 @ 00:00
TAF SBNT 181500Z 1818/1918 15015KT 8000 BKN020 TN22/1908Z TX29/1915Z
Wind Visibility Clouds
150° at 15 knots 7,998 meters
  • Broken at 2,000' AGL
Expired Click to View Jul-18 @ 18:00 to Jul-18 @ 20:00
TEMPO 1818/1820 6000 SHRA BKN017
Visibility Clouds Conditions
6,003 meters
  • Broken at 1,700' AGL
  • Rain
Becoming Jul-19 @ 00:00 to Jul-19 @ 11:00
BECMG 1900/1902 18007KT
Wind Visibility Clouds
180° at 7 knots 7,998 meters
  • Broken at 2,000' AGL
Temporary Jul-19 @ 08:00 to Jul-19 @ 12:00
TEMPO 1908/1912 5000 RA BKN015
Visibility Clouds Conditions
5,005 meters
  • Broken at 1,500' AGL
  • Rain
Becoming Jul-19 @ 11:00 to Jul-19 @ 18:00
BECMG 1911/1913 14016KT RMK PCH
Wind Visibility Clouds
140° at 16 knots 7,998 meters
  • Broken at 2,000' AGL
TAF SBNT 181500Z 1818/1918 15015KT 8000 BKN020 TN22/1908Z TX29/1915Z TEMPO 1818/1820 6000 SHRA BKN017 BECMG 1900/1902 18007KT TEMPO 1908/1912 5000 RA BKN015 BECMG 1911/1913 14016KT RMK PCH
Issued Jul-18 @ 15:00 UTC
(7 hours ago)
Valid From Jul-18 @ 18:00 UTC
(4 hours ago)
Valid To Jul-19 @ 18:00 UTC
(in 20 hours)
Jul-18 @ 18:00 - Jul-19 @ 00:00
Wind Visibility
150° at 15 knots 7,998 meters
Clouds
  • Broken at 2,000' AGL
Jul-18 @ 18:00 - Jul-18 @ 20:00
Clouds
  • Broken at 1,700' AGL
Conditions
  • Rain
Becoming Jul-19 @ 00:00 - Jul-19 @ 11:00
Wind Visibility
180° at 7 knots 7,998 meters
Clouds
  • Broken at 2,000' AGL
Temporary Jul-19 @ 08:00 - Jul-19 @ 12:00
Clouds
  • Broken at 1,500' AGL
Conditions
  • Rain
Becoming Jul-19 @ 11:00 - Jul-19 @ 18:00
Wind Visibility
140° at 16 knots 7,998 meters
Clouds
  • Broken at 2,000' AGL